createdAt,value
2023-03-16T00:01:40.543Z,41.00
2023-03-16T00:04:13.553Z,41.04
2023-03-16T00:06:46.745Z,41.04
2023-03-16T00:09:19.652Z,40.53
2023-03-16T00:11:52.765Z,39.69
2023-03-16T00:14:25.695Z,39.49
2023-03-16T00:16:58.684Z,39.79
2023-03-16T00:19:31.711Z,40.25
2023-03-16T00:22:04.691Z,40.42
2023-03-16T00:24:37.755Z,40.50
2023-03-16T00:27:10.681Z,40.37
2023-03-16T00:29:43.918Z,40.52
2023-03-16T00:32:17.639Z,40.58
2023-03-16T00:34:50.799Z,40.71
2023-03-16T00:37:24.108Z,40.58
2023-03-16T00:39:56.685Z,40.66
2023-03-16T00:42:29.790Z,40.76
2023-03-16T00:45:02.702Z,40.75
2023-03-16T00:47:35.596Z,40.68
2023-03-16T00:50:08.725Z,40.71
2023-03-16T00:52:41.924Z,40.71
2023-03-16T00:55:15.952Z,40.74
2023-03-16T00:57:49.595Z,40.71
2023-03-16T01:00:22.739Z,40.81
2023-03-16T01:02:55.882Z,40.80
2023-03-16T01:05:28.977Z,40.73
2023-03-16T01:08:02.847Z,40.82
2023-03-16T01:10:35.626Z,40.73
2023-03-16T01:13:08.753Z,40.87
2023-03-16T01:15:41.579Z,40.85
2023-03-16T01:18:14.806Z,40.89
2023-03-16T01:20:50.790Z,40.76
2023-03-16T01:23:23.878Z,40.93
2023-03-16T01:25:57.038Z,40.88
2023-03-16T01:28:30.643Z,40.91
2023-03-16T01:31:03.864Z,40.97
2023-03-16T01:33:36.936Z,40.94
2023-03-16T01:36:09.796Z,40.93
2023-03-16T01:38:43.236Z,41.16
2023-03-16T01:41:15.490Z,41.16
2023-03-16T01:43:48.617Z,40.99
2023-03-16T01:46:25.093Z,41.11
2023-03-16T01:48:57.506Z,41.20
2023-03-16T01:51:31.058Z,41.08
2023-03-16T01:54:04.850Z,41.09
2023-03-16T01:56:37.666Z,41.14
2023-03-16T01:59:10.847Z,41.23
2023-03-16T02:01:43.730Z,41.21
2023-03-16T02:04:16.608Z,41.24
2023-03-16T02:06:49.654Z,41.31
2023-03-16T02:09:22.849Z,41.32
2023-03-16T02:11:58.857Z,41.43
2023-03-16T02:14:31.724Z,41.45
2023-03-16T02:19:54.705Z,41.62
2023-03-16T02:22:27.667Z,41.69
2023-03-16T02:25:00.626Z,41.67
2023-03-16T02:27:34.074Z,41.79
2023-03-16T02:30:07.604Z,41.69
2023-03-16T02:32:40.819Z,41.76
2023-03-16T02:35:14.014Z,41.75
2023-03-16T02:37:46.699Z,41.73
2023-03-16T02:40:19.622Z,41.74
2023-03-16T02:42:52.899Z,41.79
2023-03-16T02:45:25.957Z,41.78
2023-03-16T02:47:59.163Z,41.84
2023-03-16T02:50:32.996Z,41.78
2023-03-16T02:53:05.876Z,41.82
2023-03-16T02:55:38.962Z,41.80
2023-03-16T02:58:11.930Z,41.82
2023-03-16T03:00:44.742Z,41.81
2023-03-16T03:03:17.722Z,41.81
2023-03-16T03:05:51.089Z,41.83
2023-03-16T03:08:25.071Z,41.83
2023-03-16T03:10:57.970Z,41.76
2023-03-16T03:13:30.774Z,41.83
2023-03-16T03:16:03.772Z,41.75
2023-03-16T03:18:36.756Z,41.74
2023-03-16T03:21:09.664Z,41.74
2023-03-16T03:23:43.015Z,41.72
2023-03-16T03:26:16.171Z,41.76
2023-03-16T03:28:50.076Z,41.70
2023-03-16T03:31:22.771Z,41.74
2023-03-16T03:33:55.999Z,41.69
2023-03-16T03:36:29.004Z,41.69
2023-03-16T03:39:01.722Z,41.68
2023-03-16T03:41:35.025Z,41.68
2023-03-16T03:44:08.011Z,41.68
2023-03-16T03:46:43.880Z,41.69
2023-03-16T03:49:16.818Z,41.63
2023-03-16T03:51:49.821Z,41.62
2023-03-16T03:54:22.883Z,41.58
2023-03-16T03:56:56.072Z,41.56
2023-03-16T03:59:28.803Z,41.56
2023-03-16T04:02:02.159Z,41.56
2023-03-16T04:04:35.034Z,41.53
2023-03-16T04:07:07.782Z,41.53
2023-03-16T04:09:41.099Z,41.52
2023-03-16T04:12:13.771Z,41.50
2023-03-16T04:14:49.835Z,41.48
2023-03-16T04:17:22.824Z,41.53
2023-03-16T04:19:55.987Z,41.52
2023-03-16T04:22:29.137Z,41.52
2023-03-16T04:25:02.048Z,41.50
2023-03-16T04:27:34.896Z,41.53
2023-03-16T04:30:08.028Z,41.47
2023-03-16T04:32:41.228Z,41.49
2023-03-16T04:35:14.104Z,41.47
2023-03-16T04:37:47.123Z,41.47
2023-03-16T04:40:19.789Z,41.46
2023-03-16T04:42:53.135Z,41.46
2023-03-16T04:45:26.242Z,41.45
2023-03-16T04:48:00.088Z,41.43
2023-03-16T04:50:33.026Z,41.46
2023-03-16T04:53:05.806Z,41.43
2023-03-16T04:55:38.917Z,41.42
2023-03-16T04:58:11.992Z,41.37
2023-03-16T05:00:45.335Z,41.41
2023-03-16T05:03:18.834Z,41.41
2023-03-16T05:05:52.131Z,41.41
2023-03-16T05:08:24.977Z,41.39
2023-03-16T05:10:57.948Z,41.31
2023-03-16T05:13:31.001Z,41.42
2023-03-16T05:16:03.901Z,41.39
2023-03-16T05:18:36.858Z,41.40
2023-03-16T05:21:09.842Z,41.41
2023-03-16T05:23:56.770Z,41.36
2023-03-16T05:26:30.003Z,41.37
2023-03-16T05:29:02.899Z,41.39
2023-03-16T05:31:36.013Z,41.39
2023-03-16T05:34:08.858Z,41.32
2023-03-16T05:36:42.053Z,41.34
2023-03-16T05:39:14.955Z,41.34
2023-03-16T05:41:48.208Z,41.30
2023-03-16T05:44:20.926Z,41.32
2023-03-16T05:46:54.055Z,41.29
2023-03-16T05:49:27.003Z,41.29
2023-03-16T05:52:00.146Z,41.29
2023-03-16T05:54:33.238Z,41.35
2023-03-16T05:57:09.862Z,41.31
2023-03-16T05:59:43.052Z,41.33
2023-03-16T06:02:16.219Z,41.28
2023-03-16T06:04:48.987Z,41.11
2023-03-16T06:07:22.221Z,41.24
2023-03-16T06:09:54.995Z,41.29
2023-03-16T06:12:28.064Z,41.33
2023-03-16T06:15:01.040Z,41.37
2023-03-16T06:17:34.090Z,41.41
2023-03-16T06:20:06.947Z,41.38
2023-03-16T06:22:40.103Z,41.27
2023-03-16T06:25:13.062Z,41.30
2023-03-16T06:27:46.098Z,41.25
2023-03-16T06:30:19.027Z,41.27
2023-03-16T06:32:52.374Z,41.26
2023-03-16T06:35:25.285Z,41.26
2023-03-16T06:37:58.144Z,41.24
2023-03-16T06:40:31.295Z,41.29
2023-03-16T06:43:04.270Z,41.18
2023-03-16T06:45:37.381Z,41.18
2023-03-16T06:48:10.025Z,41.12
2023-03-16T06:50:43.271Z,41.14
2023-03-16T06:53:16.065Z,41.20
2023-03-16T06:55:49.106Z,41.08
2023-03-16T06:58:36.097Z,40.99
2023-03-16T07:01:09.143Z,40.83
2023-03-16T07:03:42.100Z,40.76
2023-03-16T07:06:15.588Z,40.76
2023-03-16T07:08:49.420Z,40.60
2023-03-16T07:11:22.260Z,40.58
2023-03-16T07:13:55.330Z,40.55
2023-03-16T07:16:28.513Z,40.57
2023-03-16T07:19:01.655Z,40.63
2023-03-16T07:21:35.313Z,40.63
2023-03-16T07:24:08.330Z,40.69
2023-03-16T07:26:41.378Z,40.81
2023-03-16T07:29:14.336Z,40.75
2023-03-16T07:31:47.471Z,40.81
2023-03-16T07:34:20.303Z,40.77
2023-03-16T07:36:53.405Z,40.66
2023-03-16T07:39:26.337Z,40.76
2023-03-16T07:41:59.569Z,40.75
2023-03-16T07:44:33.370Z,40.78
2023-03-16T07:47:06.418Z,40.73
2023-03-16T07:49:39.365Z,40.79
2023-03-16T07:52:14.458Z,40.66
2023-03-16T07:54:47.380Z,40.73
2023-03-16T07:57:20.373Z,40.70
2023-03-16T07:59:53.046Z,40.69
2023-03-16T08:02:26.212Z,40.77
2023-03-16T08:04:59.454Z,40.64
2023-03-16T08:07:32.477Z,40.74
2023-03-16T08:10:05.405Z,40.87
2023-03-16T08:12:38.449Z,40.71
2023-03-16T08:15:11.377Z,40.78
2023-03-16T08:17:44.688Z,40.74
2023-03-16T08:20:18.400Z,40.65
2023-03-16T08:22:51.453Z,40.82
2023-03-16T08:25:24.398Z,40.78
2023-03-16T08:27:57.485Z,40.67
2023-03-16T08:30:30.926Z,40.83
2023-03-16T08:33:03.524Z,40.90
2023-03-16T08:35:36.683Z,40.81
2023-03-16T08:38:10.363Z,40.81
2023-03-16T08:40:43.564Z,40.92
2023-03-16T08:43:16.427Z,40.97
2023-03-16T08:45:49.435Z,40.95
2023-03-16T08:48:22.455Z,40.86
2023-03-16T08:50:55.482Z,40.95
2023-03-16T08:53:28.487Z,40.92
2023-03-16T08:56:01.543Z,40.96
2023-03-16T08:58:34.539Z,40.96
2023-03-16T09:01:07.430Z,41.02
2023-03-16T09:03:40.574Z,41.00
2023-03-16T09:06:13.632Z,41.00
2023-03-16T09:08:47.472Z,40.96
2023-03-16T09:11:20.520Z,41.01
2023-03-16T09:13:53.672Z,41.02
2023-03-16T09:16:27.704Z,41.01
2023-03-16T09:19:01.588Z,41.01
2023-03-16T09:21:37.539Z,41.01
2023-03-16T09:24:10.504Z,41.02
2023-03-16T09:26:43.750Z,41.03
2023-03-16T09:29:17.502Z,41.07
2023-03-16T09:31:50.668Z,41.08
2023-03-16T09:36:56.581Z,33.69
2023-03-16T09:39:29.476Z,36.46
2023-03-16T09:42:02.252Z,39.09
2023-03-16T09:44:35.369Z,39.22
2023-03-16T09:47:11.494Z,39.09
2023-03-16T09:49:50.399Z,39.42
2023-03-16T09:52:23.263Z,39.46
2023-03-16T09:54:56.340Z,39.51
2023-03-16T09:57:29.684Z,39.69
2023-03-16T10:00:02.547Z,39.74
2023-03-16T10:02:35.284Z,39.78
2023-03-16T10:05:08.559Z,39.82
2023-03-16T10:07:41.408Z,39.89
2023-03-16T10:10:20.178Z,39.94
2023-03-16T10:12:53.401Z,39.95
2023-03-16T10:15:26.641Z,39.99
2023-03-16T10:17:59.435Z,40.05
2023-03-16T10:20:32.471Z,40.08
2023-03-16T10:23:05.300Z,40.14
2023-03-16T10:25:38.449Z,40.18
2023-03-16T10:28:11.329Z,40.21
2023-03-16T10:30:44.307Z,40.24
2023-03-16T10:33:17.361Z,40.20
2023-03-16T10:35:50.537Z,40.28
2023-03-16T10:38:23.301Z,40.28
2023-03-16T10:40:56.589Z,40.34
2023-03-16T10:43:29.426Z,40.39
2023-03-16T10:46:02.902Z,40.46
2023-03-16T10:48:35.584Z,40.47
2023-03-16T10:51:08.639Z,40.55
2023-03-16T10:53:41.661Z,40.51
2023-03-16T10:56:14.665Z,40.57
2023-03-16T10:58:47.615Z,40.56
2023-03-16T11:01:20.741Z,40.55
2023-03-16T11:03:59.586Z,40.54
2023-03-16T11:06:32.500Z,40.63
2023-03-16T11:09:05.647Z,40.67
2023-03-16T11:11:38.663Z,40.68
2023-03-16T11:14:11.653Z,40.71
2023-03-16T11:16:44.803Z,40.71
2023-03-16T11:19:17.368Z,40.83
2023-03-16T11:21:50.594Z,40.76
2023-03-16T11:24:23.647Z,40.78
2023-03-16T11:26:56.697Z,40.84
2023-03-16T11:29:29.704Z,40.88
2023-03-16T11:32:02.602Z,40.86
2023-03-16T11:34:35.513Z,40.84
2023-03-16T11:37:08.547Z,40.96
2023-03-16T11:39:41.538Z,40.92
2023-03-16T11:42:14.407Z,40.84
2023-03-16T11:44:50.109Z,40.93
2023-03-16T11:47:20.441Z,40.96
2023-03-16T11:49:53.547Z,40.97
2023-03-16T11:52:26.582Z,40.95
2023-03-16T11:54:59.761Z,40.96
2023-03-16T11:57:32.463Z,41.00
2023-03-16T12:00:05.462Z,41.03
2023-03-16T12:02:38.714Z,41.03
2023-03-16T12:05:11.458Z,41.04
2023-03-16T12:07:44.833Z,41.04
2023-03-16T12:10:17.454Z,41.07
2023-03-16T12:12:50.450Z,41.12
2023-03-16T12:15:23.453Z,41.11
2023-03-16T12:17:57.000Z,41.16
2023-03-16T12:20:30.624Z,41.19
2023-03-16T12:23:03.623Z,41.20
2023-03-16T12:25:36.714Z,41.31
2023-03-16T12:28:09.460Z,41.21
2023-03-16T12:30:42.588Z,41.24
2023-03-16T12:33:15.490Z,41.23
2023-03-16T12:35:48.760Z,41.28
2023-03-16T12:38:21.532Z,41.26
2023-03-16T12:40:54.614Z,41.15
2023-03-16T12:43:27.852Z,34.46
2023-03-16T12:46:00.869Z,33.04
2023-03-16T12:48:33.501Z,33.40
2023-03-16T12:51:06.525Z,32.07
2023-03-16T12:53:53.775Z,34.51
2023-03-16T12:56:26.758Z,36.09
2023-03-16T12:58:59.777Z,37.03
2023-03-16T13:01:32.963Z,37.44
2023-03-16T13:04:05.819Z,37.80
2023-03-16T13:06:38.808Z,37.91
2023-03-16T13:09:11.582Z,38.09
2023-03-16T13:11:44.756Z,38.27
2023-03-16T13:14:17.558Z,38.37
2023-03-16T13:16:50.793Z,38.38
2023-03-16T13:19:23.597Z,38.52
2023-03-16T13:21:56.689Z,38.51
2023-03-16T13:24:29.757Z,38.55
2023-03-16T13:27:08.482Z,38.59
2023-03-16T13:29:41.585Z,38.68
2023-03-16T13:32:14.654Z,38.77
2023-03-16T13:34:47.788Z,38.91
2023-03-16T13:37:24.392Z,38.89
2023-03-16T13:40:11.533Z,39.05
2023-03-16T13:42:45.787Z,39.14
2023-03-16T13:45:18.613Z,39.21
2023-03-16T13:47:51.883Z,39.30
2023-03-16T13:50:24.749Z,39.30
2023-03-16T13:52:57.746Z,39.41
2023-03-16T13:55:30.774Z,39.39
2023-03-16T13:58:03.884Z,39.43
2023-03-16T14:00:36.833Z,39.53
2023-03-16T14:03:09.609Z,39.55
2023-03-16T14:05:42.729Z,39.60
2023-03-16T14:08:15.607Z,39.62
2023-03-16T14:10:48.811Z,39.63
2023-03-16T14:13:21.605Z,39.69
2023-03-16T14:15:54.888Z,39.72
2023-03-16T14:18:27.751Z,39.74
2023-03-16T14:21:00.727Z,39.77
2023-03-16T14:23:33.852Z,39.78
2023-03-16T14:26:06.666Z,39.86
2023-03-16T14:28:39.664Z,39.89
2023-03-16T14:31:13.052Z,39.96
2023-03-16T14:33:45.841Z,40.02
2023-03-16T14:36:19.025Z,39.87
2023-03-16T14:38:51.974Z,39.67
2023-03-16T14:41:24.789Z,39.77
2023-03-16T14:43:57.879Z,39.73
2023-03-16T14:46:30.972Z,39.71
2023-03-16T14:49:03.828Z,39.69
2023-03-16T14:51:36.769Z,39.71
2023-03-16T14:54:09.693Z,39.40
2023-03-16T14:56:42.829Z,39.04
2023-03-16T14:59:15.697Z,38.63
2023-03-16T15:01:48.984Z,37.77
2023-03-16T15:04:21.714Z,37.88
2023-03-16T15:06:54.821Z,37.52
2023-03-16T15:09:27.820Z,37.32
2023-03-16T15:12:01.108Z,36.86
2023-03-16T15:14:33.986Z,36.57
2023-03-16T15:17:06.717Z,36.26
2023-03-16T15:19:39.949Z,36.46
2023-03-16T15:22:12.891Z,36.04
2023-03-16T15:24:45.768Z,36.04
2023-03-16T15:27:18.773Z,36.02
2023-03-16T15:29:51.746Z,36.10
2023-03-16T15:32:24.774Z,35.97
2023-03-16T15:34:57.804Z,35.48
2023-03-16T15:37:30.898Z,35.98
2023-03-16T15:40:03.909Z,36.14
2023-03-16T15:42:36.990Z,36.15
2023-03-16T15:45:09.793Z,36.38
2023-03-16T15:47:43.060Z,36.50
2023-03-16T15:50:15.813Z,36.78
2023-03-16T15:52:49.069Z,36.89
2023-03-16T15:55:21.911Z,36.93
2023-03-16T15:57:59.166Z,37.14
2023-03-16T16:00:31.948Z,37.23
2023-03-16T16:03:04.975Z,37.24
2023-03-16T16:05:38.243Z,37.46
2023-03-16T16:08:12.060Z,37.58
2023-03-16T16:10:45.138Z,37.65
2023-03-16T16:13:18.140Z,37.70
2023-03-16T16:15:51.817Z,37.85
2023-03-16T16:18:24.136Z,37.91
2023-03-16T16:20:57.179Z,37.96
2023-03-16T16:23:30.149Z,37.98
2023-03-16T16:26:03.159Z,38.09
2023-03-16T16:28:36.221Z,38.07
2023-03-16T16:31:09.061Z,38.19
2023-03-16T16:33:41.962Z,38.24
2023-03-16T16:36:15.167Z,38.29
2023-03-16T16:38:48.118Z,38.33
2023-03-16T16:41:20.828Z,38.38
2023-03-16T16:43:53.902Z,38.42
2023-03-16T16:46:27.232Z,38.48
2023-03-16T16:48:59.985Z,38.57
2023-03-16T16:51:33.156Z,38.59
2023-03-16T16:54:05.838Z,38.64
2023-03-16T16:56:38.958Z,38.70
2023-03-16T16:59:11.892Z,38.74
2023-03-16T17:01:44.863Z,38.77
2023-03-16T17:04:18.028Z,38.84
2023-03-16T17:06:51.092Z,38.88
2023-03-16T17:09:24.179Z,38.88
2023-03-16T17:11:57.025Z,38.93
2023-03-16T17:14:29.902Z,38.98
2023-03-16T17:17:03.089Z,38.72
2023-03-16T17:19:35.902Z,38.05
2023-03-16T17:22:08.886Z,37.83
2023-03-16T17:24:42.017Z,38.14
2023-03-16T17:27:14.934Z,38.29
2023-03-16T17:29:47.943Z,38.34
2023-03-16T17:32:20.980Z,38.42
2023-03-16T17:34:53.932Z,38.58
2023-03-16T17:37:27.057Z,38.56
2023-03-16T17:40:00.109Z,38.68
2023-03-16T17:42:33.199Z,38.67
2023-03-16T17:45:06.266Z,38.73
2023-03-16T17:47:39.071Z,38.74
2023-03-16T17:50:12.216Z,38.79
2023-03-16T17:52:45.242Z,38.85
2023-03-16T17:55:18.365Z,38.86
2023-03-16T17:57:51.275Z,38.90
2023-03-16T18:00:24.503Z,39.01
2023-03-16T18:02:58.226Z,39.08
2023-03-16T18:05:31.026Z,39.09
2023-03-16T18:08:09.878Z,39.09
2023-03-16T18:10:43.034Z,39.17
2023-03-16T18:13:16.302Z,39.15
2023-03-16T18:15:49.164Z,39.26
2023-03-16T18:18:22.119Z,39.20
2023-03-16T18:20:55.075Z,39.27
2023-03-16T18:23:28.063Z,39.22
2023-03-16T18:26:04.216Z,39.33
2023-03-16T18:28:36.973Z,39.36
2023-03-16T18:31:10.070Z,39.32
2023-03-16T18:33:43.115Z,39.31
2023-03-16T18:36:16.052Z,39.41
2023-03-16T18:38:49.034Z,39.33
2023-03-16T18:41:22.168Z,39.40
2023-03-16T18:43:55.081Z,39.44
2023-03-16T18:46:28.310Z,39.40
2023-03-16T18:49:01.189Z,39.44
2023-03-16T18:51:34.118Z,39.47
2023-03-16T18:54:07.277Z,39.47
2023-03-16T18:56:46.220Z,39.47
2023-03-16T18:59:19.358Z,39.52
2023-03-16T19:01:52.150Z,39.50
2023-03-16T19:04:25.164Z,39.52
2023-03-16T19:06:58.061Z,39.60
2023-03-16T19:09:31.450Z,39.55
2023-03-16T19:12:04.400Z,39.58
2023-03-16T19:14:37.183Z,39.58
2023-03-16T19:17:10.081Z,39.59
2023-03-16T19:19:43.164Z,39.61
2023-03-16T19:22:16.088Z,39.58
2023-03-16T19:24:49.634Z,39.53
2023-03-16T19:27:23.245Z,39.60
2023-03-16T19:29:56.058Z,39.57
2023-03-16T19:32:29.460Z,39.60
2023-03-16T19:35:02.183Z,39.62
2023-03-16T19:37:35.231Z,39.72
2023-03-16T19:40:08.357Z,39.70
2023-03-16T19:42:43.296Z,39.67
2023-03-16T19:45:16.117Z,39.73
2023-03-16T19:47:49.571Z,39.74
2023-03-16T19:50:22.364Z,39.67
2023-03-16T19:52:55.383Z,39.69
2023-03-16T19:55:28.945Z,39.76
2023-03-16T19:58:04.194Z,39.73
2023-03-16T20:00:37.387Z,39.79
2023-03-16T20:03:10.164Z,39.71
2023-03-16T20:05:43.250Z,39.16
2023-03-16T20:08:16.142Z,39.31
2023-03-16T20:10:49.381Z,39.09
2023-03-16T20:13:22.348Z,39.02
2023-03-16T20:15:55.243Z,39.17
2023-03-16T20:18:28.384Z,39.07
2023-03-16T20:21:01.186Z,39.03
2023-03-16T20:23:34.426Z,39.02
2023-03-16T20:26:07.378Z,39.30
2023-03-16T20:28:40.228Z,39.36
2023-03-16T20:31:13.245Z,39.45
2023-03-16T20:33:46.345Z,39.55
2023-03-16T20:36:19.178Z,39.61
2023-03-16T20:38:55.130Z,39.67
2023-03-16T20:41:34.259Z,39.66
2023-03-16T20:44:07.427Z,39.75
2023-03-16T20:46:40.440Z,39.80
2023-03-16T20:49:13.234Z,39.76
2023-03-16T20:51:46.438Z,39.78
2023-03-16T20:54:19.297Z,39.85
2023-03-16T20:56:52.288Z,39.86
2023-03-16T20:59:25.452Z,39.84
2023-03-16T21:01:58.200Z,39.84
2023-03-16T21:04:31.406Z,39.91
2023-03-16T21:07:04.225Z,39.87
2023-03-16T21:09:37.294Z,39.92
2023-03-16T21:12:10.302Z,39.79
2023-03-16T21:14:43.378Z,39.84
2023-03-16T21:17:16.264Z,39.88
2023-03-16T21:19:49.496Z,39.86
2023-03-16T21:22:26.317Z,39.95
2023-03-16T21:24:59.566Z,39.93
2023-03-16T21:27:32.396Z,39.89
2023-03-16T21:30:05.598Z,40.00
2023-03-16T21:32:38.303Z,39.89
2023-03-16T21:35:11.300Z,39.89
2023-03-16T21:37:44.589Z,39.92
2023-03-16T21:40:17.534Z,39.87
2023-03-16T21:42:50.615Z,39.90
2023-03-16T21:45:23.414Z,39.93
2023-03-16T21:47:56.366Z,39.86
2023-03-16T21:50:29.871Z,39.94
2023-03-16T21:53:02.476Z,39.93
2023-03-16T21:55:35.684Z,39.66
2023-03-16T21:58:08.326Z,39.08
2023-03-16T22:00:41.784Z,38.80
2023-03-16T22:03:15.656Z,38.71
2023-03-16T22:05:48.685Z,38.98
2023-03-16T22:08:21.646Z,39.17
2023-03-16T22:10:54.795Z,39.24
2023-03-16T22:13:28.607Z,39.39
2023-03-16T22:16:01.658Z,39.27
2023-03-16T22:18:34.431Z,39.47
2023-03-16T22:21:07.700Z,39.41
2023-03-16T22:23:40.692Z,39.44
2023-03-16T22:26:13.580Z,39.45
2023-03-16T22:28:46.636Z,39.47
2023-03-16T22:31:19.751Z,39.46
2023-03-16T22:33:52.753Z,39.48
2023-03-16T22:36:25.692Z,39.50
2023-03-16T22:38:58.717Z,39.57
2023-03-16T22:41:31.848Z,39.68
2023-03-16T22:44:05.690Z,39.64
2023-03-16T22:46:38.489Z,39.69
2023-03-16T22:49:11.659Z,39.81
2023-03-16T22:51:44.861Z,39.72
2023-03-16T22:54:18.876Z,39.79
2023-03-16T22:56:52.730Z,39.90
2023-03-16T22:59:25.456Z,39.90
2023-03-16T23:01:58.782Z,40.12
2023-03-16T23:04:31.944Z,40.21
2023-03-16T23:07:05.858Z,40.11
2023-03-16T23:09:38.416Z,40.10
2023-03-16T23:12:11.664Z,40.18
2023-03-16T23:14:44.691Z,40.24
2023-03-16T23:17:17.724Z,40.29
2023-03-16T23:19:50.722Z,40.40
2023-03-16T23:22:23.691Z,40.32
2023-03-16T23:24:56.511Z,40.47
2023-03-16T23:27:29.637Z,40.61
2023-03-16T23:30:02.807Z,40.50
2023-03-16T23:32:35.980Z,40.61
2023-03-16T23:35:09.814Z,40.55
2023-03-16T23:37:42.871Z,40.63
2023-03-16T23:40:15.451Z,40.58
2023-03-16T23:43:02.728Z,40.55
2023-03-16T23:45:35.591Z,40.61
2023-03-16T23:48:08.812Z,40.65
2023-03-16T23:50:41.576Z,40.65
2023-03-16T23:53:14.501Z,40.61
2023-03-16T23:55:47.573Z,40.70
2023-03-16T23:58:20.608Z,40.72
